Time;durP1;ratioP1;P1;durP2;ratioP2;P2;SDS_P1;SDS_P2;PMS_P1;PMS_P2;Temp;Humidity;BMP_temperature;BMP_pressure;BME280_temperature;BME280_humidity;BME280_pressure;Samples;Min_cycle;Max_cycle;Signal;HPM_P1;HPM_P2
2023/01/11 00:01:05;;;;;;;5.37;2.60;;;4.10;99.90;;;;;;4986033;28;20225;-82
2023/01/11 00:03:32;;;;;;;7.10;2.30;;;4.10;99.90;;;;;;5001561;28;20653;-81
2023/01/11 00:05:59;;;;;;;8.07;2.67;;;4.20;99.90;;;;;;4999446;28;20228;-81
2023/01/11 00:08:27;;;;;;;7.87;2.87;;;4.20;99.90;;;;;;4991614;28;20324;-81
2023/01/11 00:10:55;;;;;;;7.43;2.73;;;4.10;99.90;;;;;;5001487;28;20750;-81
2023/01/11 00:13:21;;;;;;;7.30;2.57;;;4.20;99.90;;;;;;5007063;28;20291;-81
2023/01/11 00:15:50;;;;;;;7.93;2.83;;;4.20;99.90;;;;;;5003885;28;20807;-80
2023/01/11 00:18:17;;;;;;;7.93;3.40;;;4.20;99.90;;;;;;4998707;28;20227;-81
2023/01/11 00:20:43;;;;;;;6.03;2.90;;;4.30;99.90;;;;;;5003979;28;20755;-80
2023/01/11 00:23:11;;;;;;;9.03;3.00;;;4.20;99.90;;;;;;4988063;28;20762;-81
2023/01/11 00:25:38;;;;;;;6.23;2.53;;;4.30;99.90;;;;;;4989897;28;20232;-81
2023/01/11 00:28:08;;;;;;;8.87;3.03;;;4.30;99.90;;;;;;4986770;28;20738;-81
2023/01/11 00:30:35;;;;;;;8.27;2.83;;;4.30;99.90;;;;;;5004954;28;20257;-82
2023/01/11 00:33:03;;;;;;;7.13;2.70;;;4.30;99.90;;;;;;4985218;28;20277;-81
2023/01/11 00:35:32;;;;;;;7.60;2.80;;;4.40;99.90;;;;;;4992778;28;20289;-81
2023/01/11 00:37:59;;;;;;;6.80;2.87;;;4.40;99.90;;;;;;5007519;28;20230;-81
2023/01/11 00:40:26;;;;;;;8.87;3.00;;;4.40;99.90;;;;;;5000903;28;20303;-81
2023/01/11 00:48:23;;;;;;;7.47;2.97;;;4.40;99.90;;;;;;4989747;28;20759;-80
2023/01/11 00:50:53;;;;;;;7.67;2.70;;;4.40;99.90;;;;;;4981604;28;20322;-80
2023/01/11 00:53:20;;;;;;;6.80;3.00;;;4.50;99.90;;;;;;4984091;28;20225;-80
2023/01/11 00:55:47;;;;;;;11.30;3.50;;;4.40;99.90;;;;;;4985778;28;20770;-81
2023/01/11 00:58:14;;;;;;;7.33;2.73;;;4.40;99.90;;;;;;4997827;28;20243;-81
2023/01/11 01:00:43;;;;;;;6.73;3.13;;;4.50;99.90;;;;;;4982317;28;20231;-81
2023/01/11 01:03:09;;;;;;;8.83;2.80;;;4.40;99.90;;;;;;5008873;28;20296;-80
2023/01/11 01:05:39;;;;;;;7.83;2.97;;;4.50;99.90;;;;;;5013061;28;20254;-80
2023/01/11 01:08:06;;;;;;;8.27;2.97;;;4.50;99.90;;;;;;5000610;28;20225;-81
2023/01/11 01:10:33;;;;;;;9.90;3.10;;;4.50;99.90;;;;;;4997138;28;20314;-80
2023/01/11 01:15:44;;;;;;;9.50;3.20;;;4.50;99.90;;;;;;4981465;28;20228;-81
2023/01/11 01:18:10;;;;;;;9.23;2.87;;;4.50;99.90;;;;;;5000291;28;20254;-82
2023/01/11 01:20:39;;;;;;;8.77;2.53;;;4.50;99.90;;;;;;5005312;28;20317;-81
2023/01/11 01:23:06;;;;;;;8.00;2.87;;;4.50;99.90;;;;;;4989933;28;21180;-81
2023/01/11 01:25:32;;;;;;;6.60;2.87;;;4.50;99.90;;;;;;5003316;28;20226;-82
2023/01/11 01:28:02;;;;;;;7.10;2.93;;;4.60;99.90;;;;;;4993331;28;20223;-81
2023/01/11 01:30:29;;;;;;;8.43;3.10;;;4.60;99.90;;;;;;4998506;28;20307;-82
2023/01/11 01:32:55;;;;;;;6.80;2.90;;;4.60;99.90;;;;;;4984113;28;20221;-81
2023/01/11 01:35:22;;;;;;;8.23;3.03;;;4.60;99.90;;;;;;5004453;28;20235;-81
2023/01/11 01:37:51;;;;;;;7.77;2.80;;;4.60;99.90;;;;;;4999070;28;20279;-82
2023/01/11 01:40:18;;;;;;;6.77;2.63;;;4.50;99.90;;;;;;5000633;28;20246;-81
2023/01/11 01:42:47;;;;;;;9.60;3.43;;;4.50;99.90;;;;;;4997950;28;20238;-81
2023/01/11 01:45:24;;;;;;;11.83;3.20;;;4.60;99.90;;;;;;4986795;28;20242;-81
2023/01/11 01:47:55;;;;;;;7.70;2.67;;;4.50;99.90;;;;;;4993133;28;20315;-81
2023/01/11 01:50:25;;;;;;;8.00;2.80;;;4.50;99.90;;;;;;4999818;28;20230;-80
2023/01/11 01:53:01;;;;;;;8.27;3.33;;;4.60;99.90;;;;;;4996669;28;20349;-81
2023/01/11 01:55:33;;;;;;;8.07;3.03;;;4.60;99.90;;;;;;4986135;28;20238;-81
2023/01/11 01:58:02;;;;;;;6.83;2.70;;;4.60;99.90;;;;;;5001064;28;20226;-80
2023/01/11 02:00:29;;;;;;;8.57;2.77;;;4.60;99.90;;;;;;5000053;28;20309;-81
2023/01/11 02:03:03;;;;;;;6.77;3.00;;;4.60;99.90;;;;;;4994846;28;20221;-82
2023/01/11 02:05:30;;;;;;;7.27;2.80;;;4.60;99.90;;;;;;4984847;28;20236;-82
2023/01/11 02:08:00;;;;;;;6.83;2.80;;;4.60;99.90;;;;;;5000872;28;20218;-81
2023/01/11 02:10:27;;;;;;;5.20;2.30;;;4.60;99.90;;;;;;5006027;28;20227;-81
2023/01/11 02:12:58;;;;;;;6.03;2.67;;;4.60;99.90;;;;;;4990054;28;20229;-82
2023/01/11 02:15:24;;;;;;;8.80;2.90;;;4.70;99.90;;;;;;4983091;28;20243;-82
2023/01/11 02:17:51;;;;;;;7.73;2.67;;;4.70;99.90;;;;;;4998859;28;22108;-82
2023/01/11 02:20:35;;;;;;;6.33;2.20;;;4.70;99.90;;;;;;4994126;28;20237;-81
2023/01/11 02:23:26;;;;;;;5.57;2.50;;;4.80;99.90;;;;;;4982035;28;21128;-81
2023/01/11 02:26:14;;;;;;;4.37;2.47;;;4.80;99.90;;;;;;4984870;28;20888;-80
2023/01/11 02:28:51;;;;;;;6.60;2.67;;;4.90;99.90;;;;;;4992112;28;20228;-81
2023/01/11 02:31:28;;;;;;;7.63;2.53;;;4.80;99.90;;;;;;4995718;28;20519;-81
2023/01/11 02:34:09;;;;;;;4.33;2.30;;;4.80;99.90;;;;;;5000573;28;20220;-81
2023/01/11 02:36:47;;;;;;;5.67;2.27;;;4.80;99.90;;;;;;4977382;28;20337;-81
2023/01/11 02:39:21;;;;;;;4.93;2.37;;;4.90;99.90;;;;;;4982526;28;20238;-81
2023/01/11 02:45:02;;;;;;;2.80;1.77;;;4.90;99.90;;;;;;4998450;28;20277;-81
2023/01/11 02:47:37;;;;;;;2.83;2.07;;;5.00;99.90;;;;;;4978755;28;20228;-81
2023/01/11 02:50:13;;;;;;;6.73;2.47;;;5.00;99.90;;;;;;4982519;28;20234;-81
2023/01/11 02:52:47;;;;;;;6.07;1.93;;;5.00;99.90;;;;;;4999061;28;20286;-81
2023/01/11 02:55:19;;;;;;;7.83;2.03;;;5.00;99.90;;;;;;4985719;28;20231;-81
2023/01/11 02:57:48;;;;;;;3.33;2.13;;;5.00;99.90;;;;;;4991671;28;20832;-81
2023/01/11 03:00:20;;;;;;;3.40;1.90;;;5.00;99.90;;;;;;4998157;28;20224;-80
2023/01/11 03:02:47;;;;;;;3.93;1.73;;;5.20;99.90;;;;;;5004399;28;20232;-80
2023/01/11 03:05:14;;;;;;;4.87;1.90;;;5.20;99.90;;;;;;5003345;28;20313;-81
2023/01/11 03:07:53;;;;;;;4.07;1.80;;;5.20;99.90;;;;;;5003906;28;20347;-80
2023/01/11 03:10:31;;;;;;;3.40;1.70;;;5.20;99.90;;;;;;4982688;28;20222;-81
2023/01/11 03:13:07;;;;;;;3.30;1.70;;;5.20;99.90;;;;;;4981885;28;20270;-81
2023/01/11 03:16:07;;;;;;;3.07;1.90;;;5.30;99.90;;;;;;4980146;28;20238;-81
2023/01/11 03:18:43;;;;;;;2.20;1.40;;;5.30;99.90;;;;;;4994183;28;20744;-81
2023/01/11 03:21:22;;;;;;;6.60;1.87;;;5.30;99.90;;;;;;4985443;28;20265;-81
2023/01/11 03:23:57;;;;;;;4.00;1.53;;;5.40;99.90;;;;;;5005950;28;20322;-81
2023/01/11 03:26:34;;;;;;;2.47;1.50;;;5.50;99.90;;;;;;4986073;28;20235;-81
2023/01/11 03:29:10;;;;;;;3.23;1.60;;;5.40;99.90;;;;;;5002063;28;20223;-81
2023/01/11 03:31:40;;;;;;;2.07;1.30;;;5.50;99.90;;;;;;5001129;28;20231;-81
2023/01/11 03:34:15;;;;;;;2.33;1.30;;;5.60;99.90;;;;;;4986686;28;20230;-81
2023/01/11 03:36:46;;;;;;;1.50;1.10;;;5.50;99.90;;;;;;5001093;28;20314;-81
2023/01/11 03:39:19;;;;;;;2.43;1.00;;;5.60;99.90;;;;;;4986320;28;20304;-81
2023/01/11 03:41:51;;;;;;;1.43;1.10;;;5.70;99.90;;;;;;4990105;28;20322;-81
2023/01/11 03:44:25;;;;;;;1.67;1.07;;;5.70;99.90;;;;;;4998301;28;20226;-81
2023/01/11 03:46:57;;;;;;;1.83;1.10;;;5.80;99.90;;;;;;4998935;28;20232;-81
2023/01/11 03:49:31;;;;;;;1.53;1.10;;;5.80;99.90;;;;;;5003488;28;20240;-80
2023/01/11 03:52:00;;;;;;;1.40;1.17;;;5.80;99.90;;;;;;5000526;28;20957;-81
2023/01/11 03:54:30;;;;;;;2.33;1.10;;;5.90;99.90;;;;;;5003848;28;20231;-81
2023/01/11 03:57:03;;;;;;;1.53;1.10;;;5.80;99.90;;;;;;5004728;28;20221;-81
2023/01/11 03:59:30;;;;;;;2.33;1.23;;;5.90;99.90;;;;;;4989232;28;20296;-81
2023/01/11 04:02:03;;;;;;;1.17;1.00;;;5.90;99.90;;;;;;5001734;28;20220;-81
2023/01/11 04:04:30;;;;;;;1.20;0.93;;;6.00;99.90;;;;;;5001360;28;20759;-81
2023/01/11 04:06:57;;;;;;;1.77;0.93;;;6.00;99.90;;;;;;5003223;28;20247;-81
2023/01/11 04:09:24;;;;;;;2.70;1.33;;;6.00;99.90;;;;;;4999850;28;20481;-81
2023/01/11 04:11:50;;;;;;;1.33;1.10;;;6.00;99.90;;;;;;4988641;28;20241;-81
2023/01/11 04:14:17;;;;;;;3.40;0.90;;;6.00;99.90;;;;;;4987522;28;20227;-81
2023/01/11 04:16:44;;;;;;;1.60;1.00;;;6.00;99.90;;;;;;4988496;28;20225;-81
2023/01/11 04:19:12;;;;;;;2.10;1.13;;;6.10;99.90;;;;;;4983835;28;20230;-81
2023/01/11 04:21:41;;;;;;;1.43;1.10;;;6.10;99.90;;;;;;5000376;28;20235;-81
2023/01/11 04:24:12;;;;;;;3.03;1.23;;;6.00;99.90;;;;;;5005505;28;20242;-81
2023/01/11 04:26:39;;;;;;;1.23;0.90;;;6.10;99.90;;;;;;4985636;28;21055;-81
2023/01/11 04:29:05;;;;;;;2.27;1.40;;;6.00;99.90;;;;;;4978394;28;20216;-80
2023/01/11 04:31:32;;;;;;;2.10;1.00;;;6.10;99.90;;;;;;4988157;28;20255;-81
2023/01/11 04:33:59;;;;;;;1.10;0.90;;;6.10;99.90;;;;;;4976672;28;20228;-81
2023/01/11 04:36:29;;;;;;;1.87;1.03;;;6.10;99.90;;;;;;4987211;28;20918;-81
2023/01/11 04:39:00;;;;;;;2.97;1.17;;;6.20;99.90;;;;;;5005407;28;20232;-81
2023/01/11 04:44:11;;;;;;;1.73;1.10;;;6.20;99.90;;;;;;4998897;28;20264;-82
2023/01/11 04:46:37;;;;;;;2.20;1.00;;;6.20;99.90;;;;;;4996216;28;20241;-81
2023/01/11 04:49:04;;;;;;;2.17;1.00;;;6.20;99.90;;;;;;4979791;28;20264;-81
2023/01/11 04:51:35;;;;;;;0.90;0.90;;;6.20;99.90;;;;;;4987478;28;20909;-81
2023/01/11 04:54:02;;;;;;;1.20;1.10;;;6.30;99.90;;;;;;4987285;28;20311;-81
2023/01/11 04:56:29;;;;;;;1.20;1.10;;;6.30;99.90;;;;;;4990239;28;20239;-80
2023/01/11 04:58:56;;;;;;;1.40;1.10;;;6.30;99.90;;;;;;4979760;28;20961;-80
2023/01/11 05:01:23;;;;;;;1.50;1.00;;;6.30;99.90;;;;;;4982873;28;20680;-80
2023/01/11 05:03:50;;;;;;;0.90;0.90;;;6.40;99.90;;;;;;4992353;28;20588;-81
2023/01/11 05:06:18;;;;;;;1.57;1.27;;;6.40;99.90;;;;;;5005785;28;20218;-80
2023/01/11 05:08:47;;;;;;;1.20;1.10;;;6.40;99.90;;;;;;5005558;28;20319;-80
2023/01/11 05:11:19;;;;;;;2.80;1.20;;;6.40;99.90;;;;;;5005191;28;20315;-81
2023/01/11 05:13:49;;;;;;;2.57;1.10;;;6.50;99.90;;;;;;4995519;28;20241;-81
2023/01/11 05:16:17;;;;;;;1.87;1.20;;;6.40;99.90;;;;;;4984362;28;20223;-80
2023/01/11 05:18:45;;;;;;;1.40;1.07;;;6.50;99.90;;;;;;4988648;28;20233;-82
2023/01/11 05:21:14;;;;;;;2.07;1.20;;;6.50;99.90;;;;;;4995226;28;20304;-81
2023/01/11 05:23:42;;;;;;;2.00;1.10;;;6.50;99.90;;;;;;4999961;28;20256;-82
2023/01/11 05:26:12;;;;;;;1.13;1.00;;;6.50;99.90;;;;;;4985203;28;20230;-82
2023/01/11 05:28:38;;;;;;;5.73;1.70;;;6.50;99.90;;;;;;4993102;28;20784;-82
2023/01/11 05:31:05;;;;;;;1.77;1.10;;;6.60;99.90;;;;;;4985520;28;20321;-82
2023/01/11 05:33:34;;;;;;;3.67;1.30;;;6.60;99.90;;;;;;4994021;28;20233;-83
2023/01/11 05:36:02;;;;;;;10.57;1.67;;;6.60;99.90;;;;;;4971373;28;20237;-84
2023/01/11 05:38:29;;;;;;;3.93;1.00;;;6.60;99.90;;;;;;4985667;28;20974;-85
2023/01/11 05:40:58;;;;;;;5.97;1.23;;;6.60;99.90;;;;;;5000410;28;20238;-84
2023/01/11 05:43:28;;;;;;;3.03;1.17;;;6.60;99.90;;;;;;4975963;28;20754;-83
2023/01/11 05:45:56;;;;;;;12.53;1.80;;;6.60;99.90;;;;;;4999380;28;20231;-83
2023/01/11 05:48:24;;;;;;;14.37;1.53;;;6.60;99.90;;;;;;4981826;28;20301;-83
2023/01/11 05:50:52;;;;;;;4.43;1.10;;;6.60;99.90;;;;;;4982860;28;20234;-84
2023/01/11 05:53:19;;;;;;;3.33;1.20;;;6.60;99.90;;;;;;4996364;28;20285;-84
2023/01/11 05:55:53;;;;;;;7.77;1.57;;;6.70;99.90;;;;;;4999813;28;20226;-84
2023/01/11 05:58:23;;;;;;;2.57;0.90;;;6.60;99.90;;;;;;4979065;28;20683;-84
2023/01/11 06:00:57;;;;;;;1.23;0.80;;;6.70;99.90;;;;;;4999969;28;20224;-84
2023/01/11 06:03:28;;;;;;;10.40;1.40;;;6.70;99.90;;;;;;4979367;28;20231;-83
2023/01/11 06:05:59;;;;;;;2.13;1.00;;;6.60;99.90;;;;;;4978509;28;20226;-85
2023/01/11 06:08:26;;;;;;;1.87;1.10;;;6.70;99.90;;;;;;4983349;28;20235;-83
2023/01/11 06:10:54;;;;;;;1.90;1.00;;;6.70;99.90;;;;;;4980318;28;20218;-83
2023/01/11 06:13:29;;;;;;;2.97;0.97;;;6.80;99.90;;;;;;4982016;28;20594;-84
2023/01/11 06:16:02;;;;;;;7.93;1.50;;;6.70;99.90;;;;;;4984962;28;20227;-85
2023/01/11 06:18:31;;;;;;;2.23;1.00;;;6.80;99.90;;;;;;4984061;28;20257;-86
2023/01/11 06:21:00;;;;;;;2.20;0.90;;;6.80;99.90;;;;;;4982734;28;20232;-85
2023/01/11 06:23:32;;;;;;;1.57;1.10;;;6.90;99.90;;;;;;4987147;28;20224;-80
2023/01/11 06:26:02;;;;;;;1.13;0.70;;;6.90;99.90;;;;;;4999577;28;20285;-82
2023/01/11 06:28:29;;;;;;;1.93;0.80;;;6.90;99.90;;;;;;5001636;28;20296;-82
2023/01/11 06:30:58;;;;;;;1.23;0.77;;;6.90;99.90;;;;;;4999787;28;20246;-81
2023/01/11 06:33:28;;;;;;;1.73;0.73;;;7.00;99.90;;;;;;5002322;28;20225;-80
2023/01/11 06:35:58;;;;;;;2.00;0.80;;;7.00;99.90;;;;;;4985888;28;20235;-80
2023/01/11 06:38:26;;;;;;;2.13;0.87;;;7.00;99.90;;;;;;4999113;28;21255;-80
2023/01/11 06:40:57;;;;;;;1.40;1.00;;;7.00;99.90;;;;;;5003160;28;20227;-81
2023/01/11 06:43:29;;;;;;;1.57;1.00;;;7.00;99.90;;;;;;4969984;28;20230;-80
2023/01/11 06:45:57;;;;;;;1.73;1.37;;;7.10;99.90;;;;;;4995731;28;20230;-81
2023/01/11 06:48:26;;;;;;;1.23;0.70;;;7.10;99.90;;;;;;4967562;28;20247;-81
2023/01/11 06:50:54;;;;;;;1.00;0.83;;;7.10;99.90;;;;;;4993073;28;20337;-80
2023/01/11 06:53:22;;;;;;;2.93;1.70;;;7.20;99.90;;;;;;4999426;28;20227;-80
2023/01/11 06:55:50;;;;;;;1.83;1.30;;;7.20;99.90;;;;;;5004493;28;20568;-80
2023/01/11 06:58:17;;;;;;;0.90;0.70;;;7.20;99.90;;;;;;4981540;28;20807;-80
2023/01/11 07:00:44;;;;;;;2.83;1.33;;;7.20;99.90;;;;;;4998233;28;20320;-80
2023/01/11 07:03:12;;;;;;;1.20;1.10;;;7.30;99.90;;;;;;4977579;28;20249;-80
2023/01/11 07:05:41;;;;;;;1.20;0.80;;;7.30;99.90;;;;;;4984372;28;20226;-80
2023/01/11 07:08:08;;;;;;;1.93;1.40;;;7.30;99.90;;;;;;4986441;28;20910;-81
2023/01/11 07:10:34;;;;;;;0.90;0.73;;;7.30;99.90;;;;;;4995532;28;20227;-80
2023/01/11 07:13:01;;;;;;;1.47;0.90;;;7.30;99.90;;;;;;5004217;28;20223;-81
2023/01/11 07:15:31;;;;;;;1.67;0.80;;;7.40;99.90;;;;;;5003373;28;20232;-81
2023/01/11 07:17:59;;;;;;;1.80;1.20;;;7.40;99.90;;;;;;5000801;28;20654;-81
2023/01/11 07:20:26;;;;;;;1.50;0.90;;;7.50;99.90;;;;;;5004682;28;20229;-81
2023/01/11 07:22:56;;;;;;;1.17;1.00;;;7.50;99.90;;;;;;4998805;28;20236;-81
2023/01/11 07:25:24;;;;;;;1.10;1.00;;;7.50;99.90;;;;;;4981597;28;20237;-81
2023/01/11 07:27:55;;;;;;;0.97;0.90;;;7.50;99.90;;;;;;4972201;28;20260;-81
2023/01/11 07:30:23;;;;;;;1.37;1.23;;;7.60;99.90;;;;;;4999743;28;20229;-81
2023/01/11 07:32:51;;;;;;;1.20;1.10;;;7.60;99.90;;;;;;4985802;28;20753;-81
2023/01/11 07:35:18;;;;;;;2.13;1.17;;;7.60;99.90;;;;;;5003995;28;20240;-81
2023/01/11 07:37:45;;;;;;;1.77;1.30;;;7.70;99.90;;;;;;4986121;28;20226;-81
2023/01/11 07:40:15;;;;;;;1.37;1.27;;;7.60;99.90;;;;;;4987848;28;20218;-81
2023/01/11 07:45:44;;;;;;;1.43;1.10;;;7.70;99.90;;;;;;4917960;29;20495;-81
2023/01/11 07:48:12;;;;;;;1.87;1.50;;;7.70;99.90;;;;;;4969983;28;20970;-81
2023/01/11 07:50:40;;;;;;;1.50;1.40;;;7.70;99.90;;;;;;5003468;28;20320;-81
2023/01/11 07:53:07;;;;;;;1.50;1.40;;;7.80;99.90;;;;;;4987207;28;20225;-81
2023/01/11 07:55:37;;;;;;;2.53;1.60;;;7.80;99.90;;;;;;5000743;28;20356;-81
2023/01/11 07:58:04;;;;;;;2.97;1.50;;;7.80;99.90;;;;;;4985890;28;20281;-81
2023/01/11 08:00:31;;;;;;;2.33;1.30;;;7.80;99.90;;;;;;4986845;28;20224;-81
2023/01/11 08:03:01;;;;;;;11.90;6.73;;;7.90;99.90;;;;;;4996277;28;20229;-81
2023/01/11 08:05:28;;;;;;;7.27;3.23;;;7.90;99.90;;;;;;5001152;28;20237;-81
2023/01/11 08:07:55;;;;;;;2.67;1.93;;;7.90;99.90;;;;;;4999666;28;20319;-81
2023/01/11 08:10:22;;;;;;;1.80;1.70;;;8.00;99.90;;;;;;5006683;28;20268;-80
2023/01/11 08:15:37;;;;;;;3.00;2.70;;;8.00;99.90;;;;;;4974078;28;20238;-79
2023/01/11 08:18:05;;;;;;;2.37;1.80;;;8.00;99.90;;;;;;5006318;28;20230;-80
2023/01/11 08:20:32;;;;;;;2.53;2.23;;;8.10;99.90;;;;;;5005740;28;20213;-80
2023/01/11 08:23:02;;;;;;;2.97;2.23;;;8.10;99.90;;;;;;4994585;28;20229;-80
2023/01/11 08:25:29;;;;;;;2.70;2.47;;;8.10;99.90;;;;;;4995511;28;20346;-79
2023/01/11 08:27:59;;;;;;;2.10;2.00;;;8.10;99.90;;;;;;4991992;28;20229;-79
2023/01/11 08:30:28;;;;;;;2.37;2.17;;;8.20;99.90;;;;;;4989454;28;20235;-80
2023/01/11 08:32:55;;;;;;;3.93;3.10;;;8.20;99.90;;;;;;4979020;28;20239;-80
2023/01/11 08:35:23;;;;;;;2.83;2.00;;;8.10;99.90;;;;;;4998845;28;20233;-80
2023/01/11 08:37:49;;;;;;;2.60;2.00;;;8.20;99.90;;;;;;5002623;28;20231;-81
2023/01/11 08:40:16;;;;;;;2.70;2.50;;;8.20;99.90;;;;;;4995907;28;20223;-80
2023/01/11 08:42:43;;;;;;;2.97;2.67;;;8.30;99.90;;;;;;4988456;28;20235;-80
2023/01/11 08:45:11;;;;;;;4.23;2.50;;;8.30;99.90;;;;;;4994009;28;20218;-80
2023/01/11 08:47:38;;;;;;;3.47;2.77;;;8.30;99.90;;;;;;4989245;28;20226;-80
2023/01/11 08:50:07;;;;;;;3.47;2.77;;;8.30;99.90;;;;;;4988463;28;20227;-81
2023/01/11 08:52:33;;;;;;;2.30;2.10;;;8.30;99.90;;;;;;4982622;28;20234;-80
2023/01/11 08:55:00;;;;;;;2.87;2.33;;;8.40;99.90;;;;;;4998336;28;20223;-80
2023/01/11 08:57:27;;;;;;;3.33;2.13;;;8.40;99.90;;;;;;5004507;28;20227;-80
2023/01/11 08:59:54;;;;;;;2.57;2.37;;;8.50;99.90;;;;;;4996999;28;20666;-80
2023/01/11 09:02:22;;;;;;;2.50;2.30;;;8.50;99.90;;;;;;5004897;28;20635;-80
2023/01/11 09:04:48;;;;;;;2.90;2.60;;;8.50;99.90;;;;;;4987990;28;20322;-80
2023/01/11 09:07:15;;;;;;;3.00;2.80;;;8.60;99.90;;;;;;4977121;28;20290;-80
2023/01/11 09:09:42;;;;;;;3.27;2.97;;;8.70;99.90;;;;;;5002670;28;20242;-80
2023/01/11 09:12:08;;;;;;;3.13;2.33;;;8.70;99.90;;;;;;4988856;28;20310;-80
2023/01/11 09:14:35;;;;;;;3.60;2.80;;;8.80;99.90;;;;;;4999389;28;20224;-80
2023/01/11 09:17:02;;;;;;;6.47;5.20;;;8.80;99.90;;;;;;4993656;28;20742;-80
2023/01/11 09:19:32;;;;;;;5.17;2.80;;;8.90;99.90;;;;;;4991104;28;20235;-81
2023/01/11 09:22:00;;;;;;;2.80;2.40;;;8.90;99.90;;;;;;4991798;28;20231;-80
2023/01/11 09:24:27;;;;;;;3.27;2.33;;;8.90;99.90;;;;;;5005642;28;20231;-81
2023/01/11 09:26:54;;;;;;;3.60;2.60;;;9.00;99.90;;;;;;5014166;28;20334;-80
2023/01/11 09:29:20;;;;;;;2.30;2.10;;;9.00;99.90;;;;;;5005814;28;20223;-81
2023/01/11 09:31:47;;;;;;;2.23;2.00;;;9.00;99.90;;;;;;5004300;28;20226;-80
2023/01/11 09:34:14;;;;;;;3.23;2.07;;;9.00;99.90;;;;;;5005138;28;20228;-80
2023/01/11 09:36:47;;;;;;;4.33;2.40;;;9.10;99.90;;;;;;5006201;28;20227;-80
2023/01/11 09:39:17;;;;;;;5.47;2.20;;;9.10;99.90;;;;;;5006040;28;20705;-80
2023/01/11 09:42:35;;;;;;;3.80;1.97;;;9.10;99.90;;;;;;5005329;28;20236;-80
2023/01/11 09:45:09;;;;;;;4.03;1.97;;;9.10;99.90;;;;;;4997610;28;20957;-80
2023/01/11 09:47:40;;;;;;;2.80;1.93;;;9.10;99.90;;;;;;5003723;28;20710;-80
2023/01/11 09:50:13;;;;;;;5.43;4.47;;;9.10;99.90;;;;;;4991022;28;20245;-80
2023/01/11 09:52:46;;;;;;;5.10;3.70;;;9.10;99.90;;;;;;5000639;28;20323;-80
2023/01/11 09:55:18;;;;;;;4.60;3.13;;;9.10;99.90;;;;;;4995962;28;20227;-80
2023/01/11 09:57:59;;;;;;;5.00;3.80;;;9.10;99.90;;;;;;4994100;28;20232;-80
2023/01/11 10:00:35;;;;;;;3.67;2.90;;;9.10;99.90;;;;;;5004819;28;20304;-80
2023/01/11 10:03:31;;;;;;;3.13;1.87;;;9.10;99.90;;;;;;5004817;28;20224;-80
2023/01/11 10:06:08;;;;;;;2.93;1.70;;;9.10;99.90;;;;;;4996991;28;20257;-82
2023/01/11 10:08:49;;;;;;;3.73;1.50;;;9.20;99.90;;;;;;4998805;28;20828;-80
2023/01/11 10:11:29;;;;;;;3.87;1.83;;;9.20;99.90;;;;;;4984205;28;20225;-79
2023/01/11 10:14:06;;;;;;;6.83;2.20;;;9.20;99.90;;;;;;5000661;28;20230;-80
2023/01/11 10:16:43;;;;;;;3.03;1.80;;;9.10;99.90;;;;;;4979859;28;20234;-80
2023/01/11 10:19:18;;;;;;;3.27;1.53;;;9.10;99.90;;;;;;5004682;28;20281;-79
2023/01/11 10:21:49;;;;;;;5.07;2.23;;;9.10;99.90;;;;;;5005323;28;20904;-80
2023/01/11 10:24:24;;;;;;;4.80;3.03;;;9.10;99.90;;;;;;5004931;28;20763;-80
2023/01/11 10:26:56;;;;;;;5.40;2.80;;;9.10;99.90;;;;;;5002658;28;20315;-80
2023/01/11 10:29:56;;;;;;;6.33;3.70;;;9.10;99.90;;;;;;4985386;28;20214;-80
2023/01/11 10:32:44;;;;;;;5.57;1.97;;;9.10;99.90;;;;;;4986921;28;20221;-80
2023/01/11 10:38:24;;;;;;;10.53;4.13;;;9.10;99.90;;;;;;4990447;28;20672;-80
2023/01/11 10:41:05;;;;;;;11.13;6.87;;;9.10;99.90;;;;;;5000465;28;20758;-80
2023/01/11 10:43:37;;;;;;;8.17;4.10;;;9.10;99.90;;;;;;4971971;28;20710;-81
2023/01/11 10:46:10;;;;;;;5.97;4.33;;;9.20;99.90;;;;;;4984774;28;20277;-80
2023/01/11 10:48:38;;;;;;;8.50;6.23;;;9.20;99.90;;;;;;5004331;28;20685;-81
2023/01/11 10:51:14;;;;;;;7.10;3.63;;;9.20;99.90;;;;;;5000433;28;20226;-80
2023/01/11 10:53:59;;;;;;;5.50;3.00;;;9.20;99.90;;;;;;5001187;28;20224;-81
2023/01/11 10:56:44;;;;;;;5.17;3.87;;;9.20;99.90;;;;;;4985678;28;20234;-80
2023/01/11 10:59:26;;;;;;;8.17;5.07;;;9.20;99.90;;;;;;4978321;28;20810;-81
2023/01/11 11:02:06;;;;;;;6.80;4.57;;;9.20;99.90;;;;;;4998740;28;20704;-80
2023/01/11 11:04:43;;;;;;;12.77;8.03;;;9.20;99.90;;;;;;4997388;28;20251;-81
2023/01/11 11:07:17;;;;;;;10.53;5.43;;;9.20;99.90;;;;;;4995085;28;20249;-81
2023/01/11 11:09:54;;;;;;;7.63;2.93;;;9.20;99.90;;;;;;4975273;28;20834;-81
2023/01/11 11:12:26;;;;;;;6.13;2.47;;;9.10;99.90;;;;;;4999415;28;20215;-80
2023/01/11 11:15:01;;;;;;;6.87;2.13;;;9.10;99.90;;;;;;4978710;28;20230;-81
2023/01/11 11:17:31;;;;;;;4.30;2.40;;;9.10;99.90;;;;;;4997372;28;20230;-80
2023/01/11 11:19:58;;;;;;;5.13;2.20;;;9.20;99.90;;;;;;4987252;28;20271;-80
2023/01/11 11:22:25;;;;;;;6.47;3.63;;;9.20;99.90;;;;;;4985207;28;20258;-81
2023/01/11 11:24:58;;;;;;;5.63;3.10;;;9.20;99.90;;;;;;4984974;28;21043;-81
2023/01/11 11:27:32;;;;;;;7.23;3.70;;;9.20;99.90;;;;;;4985586;28;20288;-81
2023/01/11 11:29:59;;;;;;;7.23;3.70;;;9.20;99.90;;;;;;4987787;28;20219;-81
2023/01/11 11:32:29;;;;;;;7.73;3.00;;;9.20;99.90;;;;;;4986266;28;20224;-81
2023/01/11 11:34:57;;;;;;;7.50;2.70;;;9.20;99.90;;;;;;5004010;28;20284;-81
2023/01/11 11:37:27;;;;;;;15.90;7.47;;;9.20;99.90;;;;;;5004353;28;21912;-81
2023/01/11 11:39:55;;;;;;;7.73;4.30;;;9.20;99.90;;;;;;5000634;28;20229;-81
2023/01/11 11:42:22;;;;;;;8.03;4.10;;;9.20;99.90;;;;;;5004110;28;20251;-80
2023/01/11 11:45:17;;;;;;;11.77;7.37;;;9.20;99.90;;;;;;4999295;28;20227;-81
2023/01/11 11:48:01;;;;;;;4.90;2.30;;;9.20;99.90;;;;;;5008301;28;20230;-80
2023/01/11 11:50:29;;;;;;;7.57;2.43;;;9.20;99.90;;;;;;4986625;28;20322;-81
2023/01/11 11:53:02;;;;;;;5.33;2.10;;;9.30;99.90;;;;;;5007442;28;20313;-81
2023/01/11 11:55:31;;;;;;;8.87;2.70;;;9.20;99.90;;;;;;5006065;28;21239;-80
2023/01/11 11:58:04;;;;;;;6.17;2.20;;;9.20;99.90;;;;;;5000888;28;20226;-80
2023/01/11 12:00:42;;;;;;;4.03;2.00;;;9.20;99.90;;;;;;4983417;28;20233;-80
2023/01/11 12:03:20;;;;;;;4.50;2.10;;;9.20;99.90;;;;;;5001037;28;20216;-80
2023/01/11 12:05:56;;;;;;;7.13;2.00;;;9.20;99.90;;;;;;4990871;28;20707;-81
2023/01/11 12:08:24;;;;;;;7.60;3.00;;;9.20;99.90;;;;;;4979755;28;20231;-80
2023/01/11 12:10:56;;;;;;;6.33;2.37;;;9.20;99.90;;;;;;5001130;28;20346;-81
2023/01/11 12:13:35;;;;;;;7.23;2.27;;;9.20;99.90;;;;;;4973537;28;20245;-81
2023/01/11 12:16:06;;;;;;;6.10;1.93;;;9.20;99.90;;;;;;4999712;28;20812;-81
2023/01/11 12:18:40;;;;;;;7.43;2.30;;;9.20;99.90;;;;;;5004918;28;20235;-81
2023/01/11 12:21:25;;;;;;;7.67;2.03;;;9.20;99.90;;;;;;5005220;28;20910;-80
2023/01/11 12:24:10;;;;;;;11.47;3.07;;;9.20;99.90;;;;;;5004201;28;20224;-81
2023/01/11 12:26:43;;;;;;;10.03;2.40;;;9.20;99.90;;;;;;4984758;28;20253;-81
2023/01/11 12:29:22;;;;;;;7.30;2.20;;;9.20;99.90;;;;;;4981799;28;20249;-81
2023/01/11 12:32:18;;;;;;;6.67;2.47;;;9.20;99.90;;;;;;4989212;28;20282;-81
2023/01/11 12:35:04;;;;;;;8.90;2.13;;;9.20;99.90;;;;;;4999871;28;20226;-81
2023/01/11 12:37:50;;;;;;;10.67;2.00;;;9.20;99.90;;;;;;4976647;28;21440;-81
2023/01/11 12:40:25;;;;;;;8.23;2.80;;;9.10;99.90;;;;;;4992372;28;20223;-80
2023/01/11 12:43:07;;;;;;;12.50;3.30;;;9.10;99.90;;;;;;4999220;28;20336;-81
2023/01/11 12:45:44;;;;;;;7.13;2.40;;;9.10;99.90;;;;;;4994486;28;20237;-80
2023/01/11 12:48:31;;;;;;;9.13;2.60;;;9.10;99.90;;;;;;4979528;28;20229;-81
2023/01/11 12:51:10;;;;;;;9.83;2.90;;;9.10;99.90;;;;;;4978004;28;20310;-80
2023/01/11 12:53:52;;;;;;;8.83;2.70;;;9.10;99.90;;;;;;5006338;28;20231;-81
2023/01/11 12:56:41;;;;;;;8.47;2.67;;;9.10;99.90;;;;;;4983069;28;20226;-81
2023/01/11 12:59:27;;;;;;;5.80;2.37;;;9.10;99.90;;;;;;4982486;28;20859;-80
2023/01/11 13:02:02;;;;;;;8.90;2.77;;;9.10;99.90;;;;;;5007036;28;20303;-81
2023/01/11 13:04:50;;;;;;;8.23;2.50;;;9.10;99.90;;;;;;5007045;28;20235;-80
2023/01/11 13:07:43;;;;;;;8.87;3.00;;;9.10;99.90;;;;;;5002109;28;20754;-80
2023/01/11 13:10:22;;;;;;;11.10;4.07;;;9.10;99.90;;;;;;5003733;28;20229;-80
2023/01/11 13:12:55;;;;;;;7.93;2.70;;;9.10;99.90;;;;;;4991666;28;20251;-81
2023/01/11 13:15:31;;;;;;;9.43;3.50;;;9.10;99.90;;;;;;5002191;28;20255;-81
2023/01/11 13:18:04;;;;;;;7.07;2.50;;;9.10;99.90;;;;;;5007044;28;20223;-81
2023/01/11 13:20:42;;;;;;;7.53;2.87;;;9.10;99.90;;;;;;4995621;28;20231;-80
2023/01/11 13:23:14;;;;;;;7.53;2.83;;;9.10;99.90;;;;;;5005602;28;20746;-81
2023/01/11 13:25:48;;;;;;;8.77;2.60;;;9.10;99.90;;;;;;5001538;28;20230;-81
2023/01/11 13:28:22;;;;;;;8.17;3.07;;;9.10;99.90;;;;;;4984657;28;20219;-81
2023/01/11 13:30:50;;;;;;;8.30;2.70;;;9.10;99.90;;;;;;5008037;28;20250;-80
2023/01/11 13:33:21;;;;;;;6.90;3.10;;;9.10;99.90;;;;;;5004088;28;20832;-80
2023/01/11 13:35:54;;;;;;;7.10;2.70;;;9.10;99.90;;;;;;4994059;28;20235;-80
2023/01/11 13:38:33;;;;;;;7.63;2.57;;;9.10;99.90;;;;;;5000457;28;20775;-81
2023/01/11 13:41:09;;;;;;;6.83;2.50;;;9.20;99.90;;;;;;4978310;28;20854;-80